sensor_id;sensor_type;location;lat;lon;timestamp;P1;durP1;ratioP1;P2;durP2;ratioP2
38123;SDS011;23934;47.998;9.832;2023-07-30T00:02:14;3.78;;;1.75;;
38123;SDS011;23934;47.998;9.832;2023-07-30T00:04:40;4.57;;;2.17;;
38123;SDS011;23934;47.998;9.832;2023-07-30T00:07:06;3.75;;;1.83;;
38123;SDS011;23934;47.998;9.832;2023-07-30T00:09:32;2.72;;;1.38;;
38123;SDS011;23934;47.998;9.832;2023-07-30T00:11:58;4.15;;;1.77;;
38123;SDS011;23934;47.998;9.832;2023-07-30T00:14:24;2.30;;;1.42;;
38123;SDS011;23934;47.998;9.832;2023-07-30T00:16:50;7.03;;;2.40;;
38123;SDS011;23934;47.998;9.832;2023-07-30T00:19:16;6.43;;;2.05;;
38123;SDS011;23934;47.998;9.832;2023-07-30T00:21:42;5.75;;;2.65;;
38123;SDS011;23934;47.998;9.832;2023-07-30T00:24:11;5.05;;;1.90;;
38123;SDS011;23934;47.998;9.832;2023-07-30T00:26:37;3.97;;;1.73;;
38123;SDS011;23934;47.998;9.832;2023-07-30T00:29:03;4.13;;;2.05;;
38123;SDS011;23934;47.998;9.832;2023-07-30T00:31:29;6.85;;;2.35;;
38123;SDS011;23934;47.998;9.832;2023-07-30T00:33:55;3.33;;;1.42;;
38123;SDS011;23934;47.998;9.832;2023-07-30T00:36:21;5.85;;;3.03;;
38123;SDS011;23934;47.998;9.832;2023-07-30T00:38:47;7.28;;;1.98;;
38123;SDS011;23934;47.998;9.832;2023-07-30T00:41:13;6.80;;;2.17;;
38123;SDS011;23934;47.998;9.832;2023-07-30T00:43:39;3.60;;;1.60;;
38123;SDS011;23934;47.998;9.832;2023-07-30T00:46:05;3.53;;;1.30;;
38123;SDS011;23934;47.998;9.832;2023-07-30T00:48:31;4.35;;;1.70;;
38123;SDS011;23934;47.998;9.832;2023-07-30T00:50:57;4.00;;;1.73;;
38123;SDS011;23934;47.998;9.832;2023-07-30T00:53:24;3.35;;;1.63;;
38123;SDS011;23934;47.998;9.832;2023-07-30T00:55:52;3.17;;;1.58;;
38123;SDS011;23934;47.998;9.832;2023-07-30T00:58:18;3.92;;;2.08;;
38123;SDS011;23934;47.998;9.832;2023-07-30T01:00:44;4.63;;;2.15;;
38123;SDS011;23934;47.998;9.832;2023-07-30T01:03:10;5.95;;;2.38;;
38123;SDS011;23934;47.998;9.832;2023-07-30T01:05:36;3.80;;;1.75;;
38123;SDS011;23934;47.998;9.832;2023-07-30T01:08:02;3.50;;;1.63;;
38123;SDS011;23934;47.998;9.832;2023-07-30T01:10:29;2.00;;;1.20;;
38123;SDS011;23934;47.998;9.832;2023-07-30T01:12:56;2.67;;;1.48;;
38123;SDS011;23934;47.998;9.832;2023-07-30T01:15:22;3.17;;;1.58;;
38123;SDS011;23934;47.998;9.832;2023-07-30T01:17:47;3.45;;;1.67;;
38123;SDS011;23934;47.998;9.832;2023-07-30T01:20:14;6.25;;;3.00;;
38123;SDS011;23934;47.998;9.832;2023-07-30T01:22:40;3.20;;;1.67;;
38123;SDS011;23934;47.998;9.832;2023-07-30T01:25:06;4.90;;;1.50;;
38123;SDS011;23934;47.998;9.832;2023-07-30T01:27:33;5.70;;;2.05;;
38123;SDS011;23934;47.998;9.832;2023-07-30T01:30:03;3.97;;;1.38;;
38123;SDS011;23934;47.998;9.832;2023-07-30T01:32:31;4.10;;;1.58;;
38123;SDS011;23934;47.998;9.832;2023-07-30T01:34:58;7.82;;;1.50;;
38123;SDS011;23934;47.998;9.832;2023-07-30T01:37:25;3.30;;;2.03;;
38123;SDS011;23934;47.998;9.832;2023-07-30T01:39:51;5.10;;;1.63;;
38123;SDS011;23934;47.998;9.832;2023-07-30T01:42:17;2.85;;;1.67;;
38123;SDS011;23934;47.998;9.832;2023-07-30T01:44:43;3.08;;;1.65;;
38123;SDS011;23934;47.998;9.832;2023-07-30T01:47:09;4.18;;;1.42;;
38123;SDS011;23934;47.998;9.832;2023-07-30T01:49:35;5.65;;;1.77;;
38123;SDS011;23934;47.998;9.832;2023-07-30T01:52:01;2.88;;;1.60;;
38123;SDS011;23934;47.998;9.832;2023-07-30T01:54:27;1.67;;;1.02;;
38123;SDS011;23934;47.998;9.832;2023-07-30T01:56:53;1.95;;;1.33;;
38123;SDS011;23934;47.998;9.832;2023-07-30T01:59:19;4.60;;;1.75;;
38123;SDS011;23934;47.998;9.832;2023-07-30T02:01:45;5.00;;;2.35;;
38123;SDS011;23934;47.998;9.832;2023-07-30T02:04:11;3.75;;;1.63;;
38123;SDS011;23934;47.998;9.832;2023-07-30T02:06:37;2.63;;;1.50;;
38123;SDS011;23934;47.998;9.832;2023-07-30T02:09:03;3.35;;;1.50;;
38123;SDS011;23934;47.998;9.832;2023-07-30T02:11:29;3.85;;;1.60;;
38123;SDS011;23934;47.998;9.832;2023-07-30T02:13:54;5.10;;;1.83;;
38123;SDS011;23934;47.998;9.832;2023-07-30T02:16:20;3.35;;;1.55;;
38123;SDS011;23934;47.998;9.832;2023-07-30T02:18:46;4.78;;;1.45;;
38123;SDS011;23934;47.998;9.832;2023-07-30T02:21:12;3.45;;;1.90;;
38123;SDS011;23934;47.998;9.832;2023-07-30T02:23:38;4.00;;;1.27;;
38123;SDS011;23934;47.998;9.832;2023-07-30T02:26:04;2.17;;;1.30;;
38123;SDS011;23934;47.998;9.832;2023-07-30T02:28:30;3.83;;;1.77;;
38123;SDS011;23934;47.998;9.832;2023-07-30T02:30:56;2.63;;;1.02;;
38123;SDS011;23934;47.998;9.832;2023-07-30T02:33:22;2.38;;;1.27;;
38123;SDS011;23934;47.998;9.832;2023-07-30T02:35:48;4.45;;;1.92;;
38123;SDS011;23934;47.998;9.832;2023-07-30T02:38:14;5.38;;;1.60;;
38123;SDS011;23934;47.998;9.832;2023-07-30T02:40:40;4.55;;;1.80;;
38123;SDS011;23934;47.998;9.832;2023-07-30T02:43:06;18.35;;;2.53;;
38123;SDS011;23934;47.998;9.832;2023-07-30T02:45:32;4.22;;;1.75;;
38123;SDS011;23934;47.998;9.832;2023-07-30T02:47:58;2.08;;;1.60;;
38123;SDS011;23934;47.998;9.832;2023-07-30T02:50:23;4.00;;;2.25;;
38123;SDS011;23934;47.998;9.832;2023-07-30T02:52:49;3.35;;;2.05;;
38123;SDS011;23934;47.998;9.832;2023-07-30T02:55:15;2.70;;;1.33;;
38123;SDS011;23934;47.998;9.832;2023-07-30T02:57:41;5.85;;;2.20;;
38123;SDS011;23934;47.998;9.832;2023-07-30T03:00:07;4.85;;;1.98;;
38123;SDS011;23934;47.998;9.832;2023-07-30T03:02:34;2.53;;;1.40;;
38123;SDS011;23934;47.998;9.832;2023-07-30T03:04:59;4.03;;;1.73;;
38123;SDS011;23934;47.998;9.832;2023-07-30T03:07:25;2.55;;;1.05;;
38123;SDS011;23934;47.998;9.832;2023-07-30T03:09:51;4.13;;;1.83;;
38123;SDS011;23934;47.998;9.832;2023-07-30T03:12:17;6.03;;;2.45;;
38123;SDS011;23934;47.998;9.832;2023-07-30T03:14:43;5.95;;;2.08;;
38123;SDS011;23934;47.998;9.832;2023-07-30T03:17:09;5.00;;;1.85;;
38123;SDS011;23934;47.998;9.832;2023-07-30T03:19:35;9.95;;;2.05;;
38123;SDS011;23934;47.998;9.832;2023-07-30T03:22:01;4.63;;;2.40;;
38123;SDS011;23934;47.998;9.832;2023-07-30T03:24:27;3.95;;;1.40;;
38123;SDS011;23934;47.998;9.832;2023-07-30T03:26:53;3.60;;;1.83;;
38123;SDS011;23934;47.998;9.832;2023-07-30T03:29:19;4.10;;;1.70;;
38123;SDS011;23934;47.998;9.832;2023-07-30T03:31:45;5.85;;;2.28;;
38123;SDS011;23934;47.998;9.832;2023-07-30T03:34:11;2.00;;;1.73;;
38123;SDS011;23934;47.998;9.832;2023-07-30T03:36:37;3.63;;;1.60;;
38123;SDS011;23934;47.998;9.832;2023-07-30T03:39:03;4.07;;;1.23;;
38123;SDS011;23934;47.998;9.832;2023-07-30T03:41:29;4.15;;;1.92;;
38123;SDS011;23934;47.998;9.832;2023-07-30T03:43:55;4.13;;;2.13;;
38123;SDS011;23934;47.998;9.832;2023-07-30T03:46:21;2.40;;;1.58;;
38123;SDS011;23934;47.998;9.832;2023-07-30T03:48:47;4.40;;;2.75;;
38123;SDS011;23934;47.998;9.832;2023-07-30T03:51:12;3.70;;;1.77;;
38123;SDS011;23934;47.998;9.832;2023-07-30T03:53:38;2.83;;;2.03;;
38123;SDS011;23934;47.998;9.832;2023-07-30T03:56:04;3.35;;;2.50;;
38123;SDS011;23934;47.998;9.832;2023-07-30T03:58:30;4.63;;;2.25;;
38123;SDS011;23934;47.998;9.832;2023-07-30T04:00:56;5.55;;;2.15;;
38123;SDS011;23934;47.998;9.832;2023-07-30T04:03:22;4.70;;;2.35;;
38123;SDS011;23934;47.998;9.832;2023-07-30T04:05:48;5.15;;;2.50;;
38123;SDS011;23934;47.998;9.832;2023-07-30T04:08:15;6.10;;;2.70;;
38123;SDS011;23934;47.998;9.832;2023-07-30T04:10:41;4.20;;;2.45;;
38123;SDS011;23934;47.998;9.832;2023-07-30T04:13:07;5.50;;;2.50;;
38123;SDS011;23934;47.998;9.832;2023-07-30T04:15:33;4.25;;;2.38;;
38123;SDS011;23934;47.998;9.832;2023-07-30T04:17:59;15.65;;;1.67;;
38123;SDS011;23934;47.998;9.832;2023-07-30T04:20:25;4.32;;;2.42;;
38123;SDS011;23934;47.998;9.832;2023-07-30T04:22:51;4.28;;;2.33;;
38123;SDS011;23934;47.998;9.832;2023-07-30T04:25:17;6.55;;;3.97;;
38123;SDS011;23934;47.998;9.832;2023-07-30T04:27:43;6.28;;;2.72;;
38123;SDS011;23934;47.998;9.832;2023-07-30T04:30:09;7.63;;;2.13;;
38123;SDS011;23934;47.998;9.832;2023-07-30T04:32:36;6.07;;;2.67;;
38123;SDS011;23934;47.998;9.832;2023-07-30T04:35:02;5.38;;;2.30;;
38123;SDS011;23934;47.998;9.832;2023-07-30T04:37:28;11.82;;;4.18;;
38123;SDS011;23934;47.998;9.832;2023-07-30T04:39:54;3.10;;;2.03;;
38123;SDS011;23934;47.998;9.832;2023-07-30T04:42:20;4.55;;;2.40;;
38123;SDS011;23934;47.998;9.832;2023-07-30T04:44:46;7.30;;;3.80;;
38123;SDS011;23934;47.998;9.832;2023-07-30T04:47:12;8.80;;;2.60;;
38123;SDS011;23934;47.998;9.832;2023-07-30T04:49:38;8.60;;;3.03;;
38123;SDS011;23934;47.998;9.832;2023-07-30T04:52:06;8.77;;;2.88;;
38123;SDS011;23934;47.998;9.832;2023-07-30T04:54:32;4.85;;;2.53;;
38123;SDS011;23934;47.998;9.832;2023-07-30T04:56:58;4.97;;;2.22;;
38123;SDS011;23934;47.998;9.832;2023-07-30T04:59:24;3.28;;;2.45;;
38123;SDS011;23934;47.998;9.832;2023-07-30T05:01:50;5.35;;;1.85;;
38123;SDS011;23934;47.998;9.832;2023-07-30T05:04:16;12.93;;;3.17;;
38123;SDS011;23934;47.998;9.832;2023-07-30T05:06:42;5.38;;;2.30;;
38123;SDS011;23934;47.998;9.832;2023-07-30T05:09:08;5.68;;;2.00;;
38123;SDS011;23934;47.998;9.832;2023-07-30T05:11:34;2.92;;;1.38;;
38123;SDS011;23934;47.998;9.832;2023-07-30T05:14:00;5.43;;;2.42;;
38123;SDS011;23934;47.998;9.832;2023-07-30T05:16:25;9.85;;;2.22;;
38123;SDS011;23934;47.998;9.832;2023-07-30T05:18:51;5.53;;;2.92;;
38123;SDS011;23934;47.998;9.832;2023-07-30T05:21:17;3.35;;;2.50;;
38123;SDS011;23934;47.998;9.832;2023-07-30T05:23:43;5.50;;;2.10;;
38123;SDS011;23934;47.998;9.832;2023-07-30T05:26:09;3.50;;;1.50;;
38123;SDS011;23934;47.998;9.832;2023-07-30T05:28:35;4.03;;;1.73;;
38123;SDS011;23934;47.998;9.832;2023-07-30T05:31:01;3.40;;;2.22;;
38123;SDS011;23934;47.998;9.832;2023-07-30T05:33:27;2.67;;;1.67;;
38123;SDS011;23934;47.998;9.832;2023-07-30T05:35:53;4.18;;;1.60;;
38123;SDS011;23934;47.998;9.832;2023-07-30T05:38:19;3.42;;;1.85;;
38123;SDS011;23934;47.998;9.832;2023-07-30T05:40:45;4.38;;;1.75;;
38123;SDS011;23934;47.998;9.832;2023-07-30T05:43:11;4.07;;;2.25;;
38123;SDS011;23934;47.998;9.832;2023-07-30T05:45:37;3.50;;;1.80;;
38123;SDS011;23934;47.998;9.832;2023-07-30T05:48:03;4.22;;;1.98;;
38123;SDS011;23934;47.998;9.832;2023-07-30T05:50:29;4.30;;;1.83;;
38123;SDS011;23934;47.998;9.832;2023-07-30T05:52:55;5.97;;;2.05;;
38123;SDS011;23934;47.998;9.832;2023-07-30T05:55:21;3.47;;;1.65;;
38123;SDS011;23934;47.998;9.832;2023-07-30T05:57:47;2.17;;;1.40;;
38123;SDS011;23934;47.998;9.832;2023-07-30T06:00:13;3.25;;;1.33;;
38123;SDS011;23934;47.998;9.832;2023-07-30T06:02:39;7.15;;;2.22;;
38123;SDS011;23934;47.998;9.832;2023-07-30T06:05:05;3.75;;;1.95;;
38123;SDS011;23934;47.998;9.832;2023-07-30T06:07:31;2.70;;;1.67;;
38123;SDS011;23934;47.998;9.832;2023-07-30T06:09:57;4.45;;;1.90;;
38123;SDS011;23934;47.998;9.832;2023-07-30T06:12:23;3.78;;;1.40;;
38123;SDS011;23934;47.998;9.832;2023-07-30T06:14:49;2.58;;;1.60;;
38123;SDS011;23934;47.998;9.832;2023-07-30T06:17:15;2.38;;;1.60;;
38123;SDS011;23934;47.998;9.832;2023-07-30T06:19:41;5.68;;;2.03;;
38123;SDS011;23934;47.998;9.832;2023-07-30T06:22:07;4.18;;;2.10;;
38123;SDS011;23934;47.998;9.832;2023-07-30T06:24:32;3.90;;;2.25;;
38123;SDS011;23934;47.998;9.832;2023-07-30T06:26:58;4.97;;;2.10;;
38123;SDS011;23934;47.998;9.832;2023-07-30T06:29:24;3.35;;;1.95;;
38123;SDS011;23934;47.998;9.832;2023-07-30T06:31:50;3.15;;;1.70;;
38123;SDS011;23934;47.998;9.832;2023-07-30T06:34:16;2.47;;;1.60;;
38123;SDS011;23934;47.998;9.832;2023-07-30T06:36:42;5.30;;;1.98;;
38123;SDS011;23934;47.998;9.832;2023-07-30T06:39:08;3.00;;;1.50;;
38123;SDS011;23934;47.998;9.832;2023-07-30T06:41:34;3.40;;;1.73;;
38123;SDS011;23934;47.998;9.832;2023-07-30T06:44:00;4.70;;;2.10;;
38123;SDS011;23934;47.998;9.832;2023-07-30T06:46:26;3.25;;;1.58;;
38123;SDS011;23934;47.998;9.832;2023-07-30T06:48:52;1.67;;;1.30;;
38123;SDS011;23934;47.998;9.832;2023-07-30T06:51:18;7.32;;;1.52;;
38123;SDS011;23934;47.998;9.832;2023-07-30T06:53:45;2.88;;;1.35;;
38123;SDS011;23934;47.998;9.832;2023-07-30T06:56:11;3.65;;;1.70;;
38123;SDS011;23934;47.998;9.832;2023-07-30T06:58:37;3.00;;;2.03;;
38123;SDS011;23934;47.998;9.832;2023-07-30T07:01:03;3.13;;;1.45;;
38123;SDS011;23934;47.998;9.832;2023-07-30T07:03:29;2.60;;;1.58;;
38123;SDS011;23934;47.998;9.832;2023-07-30T07:05:55;2.75;;;1.70;;
38123;SDS011;23934;47.998;9.832;2023-07-30T07:08:21;3.70;;;1.52;;
38123;SDS011;23934;47.998;9.832;2023-07-30T07:10:48;1.63;;;1.13;;
38123;SDS011;23934;47.998;9.832;2023-07-30T07:13:14;1.23;;;0.77;;
38123;SDS011;23934;47.998;9.832;2023-07-30T07:15:43;1.35;;;1.02;;
38123;SDS011;23934;47.998;9.832;2023-07-30T07:18:09;3.47;;;1.55;;
38123;SDS011;23934;47.998;9.832;2023-07-30T07:20:35;5.43;;;1.40;;
38123;SDS011;23934;47.998;9.832;2023-07-30T07:23:02;1.33;;;1.20;;
38123;SDS011;23934;47.998;9.832;2023-07-30T07:25:28;3.60;;;1.48;;
38123;SDS011;23934;47.998;9.832;2023-07-30T07:27:54;2.63;;;1.48;;
38123;SDS011;23934;47.998;9.832;2023-07-30T07:30:20;4.15;;;1.60;;
38123;SDS011;23934;47.998;9.832;2023-07-30T07:32:46;2.20;;;1.33;;
38123;SDS011;23934;47.998;9.832;2023-07-30T07:35:15;4.05;;;1.52;;
38123;SDS011;23934;47.998;9.832;2023-07-30T07:37:41;3.38;;;1.33;;
38123;SDS011;23934;47.998;9.832;2023-07-30T07:40:07;1.83;;;1.20;;
38123;SDS011;23934;47.998;9.832;2023-07-30T07:42:37;2.00;;;1.30;;
38123;SDS011;23934;47.998;9.832;2023-07-30T07:45:04;2.28;;;1.48;;
38123;SDS011;23934;47.998;9.832;2023-07-30T07:47:30;1.48;;;1.08;;
38123;SDS011;23934;47.998;9.832;2023-07-30T07:49:56;4.78;;;1.15;;
38123;SDS011;23934;47.998;9.832;2023-07-30T07:52:22;2.78;;;1.33;;
38123;SDS011;23934;47.998;9.832;2023-07-30T07:54:48;1.48;;;1.20;;
38123;SDS011;23934;47.998;9.832;2023-07-30T07:57:14;4.55;;;1.45;;
38123;SDS011;23934;47.998;9.832;2023-07-30T07:59:40;2.00;;;1.10;;
38123;SDS011;23934;47.998;9.832;2023-07-30T08:02:09;2.35;;;1.00;;
38123;SDS011;23934;47.998;9.832;2023-07-30T08:04:35;2.17;;;1.27;;
38123;SDS011;23934;47.998;9.832;2023-07-30T08:07:01;1.50;;;1.05;;
38123;SDS011;23934;47.998;9.832;2023-07-30T08:09:28;1.75;;;1.00;;
38123;SDS011;23934;47.998;9.832;2023-07-30T08:11:54;7.53;;;1.40;;
38123;SDS011;23934;47.998;9.832;2023-07-30T08:14:20;11.52;;;2.47;;
38123;SDS011;23934;47.998;9.832;2023-07-30T08:16:46;1.27;;;0.85;;
38123;SDS011;23934;47.998;9.832;2023-07-30T08:19:12;1.30;;;0.70;;
38123;SDS011;23934;47.998;9.832;2023-07-30T08:21:38;1.77;;;0.93;;
38123;SDS011;23934;47.998;9.832;2023-07-30T08:24:04;2.17;;;1.02;;
38123;SDS011;23934;47.998;9.832;2023-07-30T08:26:31;2.53;;;1.38;;
38123;SDS011;23934;47.998;9.832;2023-07-30T08:28:57;1.98;;;1.13;;
38123;SDS011;23934;47.998;9.832;2023-07-30T08:31:23;1.35;;;0.90;;
38123;SDS011;23934;47.998;9.832;2023-07-30T08:33:49;1.00;;;0.65;;
38123;SDS011;23934;47.998;9.832;2023-07-30T08:36:15;6.85;;;0.93;;
38123;SDS011;23934;47.998;9.832;2023-07-30T08:38:41;1.67;;;0.93;;
38123;SDS011;23934;47.998;9.832;2023-07-30T08:41:07;2.15;;;1.23;;
38123;SDS011;23934;47.998;9.832;2023-07-30T08:43:34;2.28;;;0.80;;
38123;SDS011;23934;47.998;9.832;2023-07-30T08:46:00;2.72;;;0.93;;
38123;SDS011;23934;47.998;9.832;2023-07-30T08:48:27;0.90;;;0.60;;
38123;SDS011;23934;47.998;9.832;2023-07-30T08:50:56;5.93;;;1.10;;
38123;SDS011;23934;47.998;9.832;2023-07-30T08:53:24;1.10;;;0.77;;
38123;SDS011;23934;47.998;9.832;2023-07-30T08:55:50;2.60;;;0.95;;
38123;SDS011;23934;47.998;9.832;2023-07-30T08:58:16;1.60;;;1.08;;
38123;SDS011;23934;47.998;9.832;2023-07-30T09:00:43;1.42;;;0.80;;
38123;SDS011;23934;47.998;9.832;2023-07-30T09:03:09;1.60;;;1.10;;
38123;SDS011;23934;47.998;9.832;2023-07-30T09:05:36;1.55;;;1.02;;
38123;SDS011;23934;47.998;9.832;2023-07-30T09:08:03;1.92;;;1.15;;
38123;SDS011;23934;47.998;9.832;2023-07-30T09:10:29;2.65;;;0.93;;
38123;SDS011;23934;47.998;9.832;2023-07-30T09:12:56;1.15;;;0.77;;
38123;SDS011;23934;47.998;9.832;2023-07-30T09:15:32;2.28;;;1.15;;
38123;SDS011;23934;47.998;9.832;2023-07-30T09:17:59;1.08;;;0.65;;
38123;SDS011;23934;47.998;9.832;2023-07-30T09:20:25;2.25;;;0.75;;
38123;SDS011;23934;47.998;9.832;2023-07-30T09:22:51;15.50;;;0.90;;
38123;SDS011;23934;47.998;9.832;2023-07-30T09:25:18;2.38;;;0.82;;
38123;SDS011;23934;47.998;9.832;2023-07-30T09:27:47;1.45;;;0.95;;
38123;SDS011;23934;47.998;9.832;2023-07-30T09:30:14;1.63;;;0.80;;
38123;SDS011;23934;47.998;9.832;2023-07-30T09:32:40;1.48;;;0.93;;
38123;SDS011;23934;47.998;9.832;2023-07-30T09:35:10;1.55;;;1.27;;
38123;SDS011;23934;47.998;9.832;2023-07-30T09:37:37;10.45;;;1.60;;
38123;SDS011;23934;47.998;9.832;2023-07-30T09:40:07;2.05;;;0.95;;
38123;SDS011;23934;47.998;9.832;2023-07-30T09:42:34;1.35;;;0.82;;
38123;SDS011;23934;47.998;9.832;2023-07-30T09:45:04;1.80;;;1.20;;
38123;SDS011;23934;47.998;9.832;2023-07-30T09:47:32;1.55;;;0.80;;
38123;SDS011;23934;47.998;9.832;2023-07-30T09:49:59;1.23;;;0.60;;
38123;SDS011;23934;47.998;9.832;2023-07-30T09:52:25;2.65;;;1.08;;
38123;SDS011;23934;47.998;9.832;2023-07-30T09:54:51;1.88;;;1.00;;
38123;SDS011;23934;47.998;9.832;2023-07-30T09:57:18;0.95;;;0.63;;
38123;SDS011;23934;47.998;9.832;2023-07-30T09:59:44;1.33;;;0.88;;
38123;SDS011;23934;47.998;9.832;2023-07-30T10:02:10;2.50;;;0.90;;
38123;SDS011;23934;47.998;9.832;2023-07-30T10:04:40;1.52;;;0.98;;
38123;SDS011;23934;47.998;9.832;2023-07-30T10:07:10;1.08;;;0.75;;
38123;SDS011;23934;47.998;9.832;2023-07-30T10:09:39;3.67;;;0.90;;
38123;SDS011;23934;47.998;9.832;2023-07-30T10:12:09;1.17;;;0.88;;
38123;SDS011;23934;47.998;9.832;2023-07-30T10:14:35;0.77;;;0.60;;
38123;SDS011;23934;47.998;9.832;2023-07-30T10:17:01;1.63;;;0.82;;
38123;SDS011;23934;47.998;9.832;2023-07-30T10:19:28;3.08;;;1.00;;
38123;SDS011;23934;47.998;9.832;2023-07-30T10:24:56;1.42;;;1.08;;
38123;SDS011;23934;47.998;9.832;2023-07-30T10:27:23;1.67;;;1.02;;
38123;SDS011;23934;47.998;9.832;2023-07-30T10:29:51;1.15;;;0.82;;
38123;SDS011;23934;47.998;9.832;2023-07-30T10:35:08;1.50;;;0.80;;
38123;SDS011;23934;47.998;9.832;2023-07-30T10:37:34;2.50;;;0.90;;
38123;SDS011;23934;47.998;9.832;2023-07-30T10:40:00;3.78;;;0.70;;
38123;SDS011;23934;47.998;9.832;2023-07-30T10:42:41;2.13;;;0.70;;
38123;SDS011;23934;47.998;9.832;2023-07-30T10:45:07;2.20;;;1.05;;
38123;SDS011;23934;47.998;9.832;2023-07-30T10:47:34;2.45;;;1.00;;
38123;SDS011;23934;47.998;9.832;2023-07-30T10:50:03;1.42;;;0.90;;
38123;SDS011;23934;47.998;9.832;2023-07-30T10:52:30;1.67;;;0.82;;
38123;SDS011;23934;47.998;9.832;2023-07-30T10:54:59;1.52;;;0.88;;
38123;SDS011;23934;47.998;9.832;2023-07-30T10:57:29;1.90;;;1.17;;
38123;SDS011;23934;47.998;9.832;2023-07-30T10:59:56;1.23;;;0.82;;
38123;SDS011;23934;47.998;9.832;2023-07-30T11:02:22;2.92;;;1.00;;
38123;SDS011;23934;47.998;9.832;2023-07-30T11:04:48;0.50;;;0.40;;
38123;SDS011;23934;47.998;9.832;2023-07-30T11:07:18;1.27;;;0.77;;
38123;SDS011;23934;47.998;9.832;2023-07-30T11:09:44;2.40;;;1.20;;
38123;SDS011;23934;47.998;9.832;2023-07-30T11:12:10;1.38;;;1.00;;
38123;SDS011;23934;47.998;9.832;2023-07-30T11:14:36;0.85;;;0.60;;
38123;SDS011;23934;47.998;9.832;2023-07-30T11:17:02;2.78;;;1.08;;
38123;SDS011;23934;47.998;9.832;2023-07-30T11:19:29;3.15;;;0.80;;
38123;SDS011;23934;47.998;9.832;2023-07-30T11:21:55;1.73;;;1.02;;
38123;SDS011;23934;47.998;9.832;2023-07-30T11:24:21;7.28;;;1.10;;
38123;SDS011;23934;47.998;9.832;2023-07-30T11:26:59;1.08;;;0.70;;
38123;SDS011;23934;47.998;9.832;2023-07-30T11:29:25;2.53;;;1.20;;
38123;SDS011;23934;47.998;9.832;2023-07-30T11:31:51;1.60;;;1.00;;
38123;SDS011;23934;47.998;9.832;2023-07-30T11:34:21;2.05;;;1.15;;
38123;SDS011;23934;47.998;9.832;2023-07-30T11:36:47;1.55;;;1.00;;
38123;SDS011;23934;47.998;9.832;2023-07-30T11:39:13;1.23;;;0.93;;
38123;SDS011;23934;47.998;9.832;2023-07-30T11:41:39;2.53;;;0.90;;
38123;SDS011;23934;47.998;9.832;2023-07-30T11:44:05;2.33;;;1.08;;
38123;SDS011;23934;47.998;9.832;2023-07-30T11:46:31;4.22;;;1.05;;
38123;SDS011;23934;47.998;9.832;2023-07-30T11:49:18;1.67;;;0.90;;
38123;SDS011;23934;47.998;9.832;2023-07-30T11:51:46;1.90;;;0.93;;
38123;SDS011;23934;47.998;9.832;2023-07-30T11:54:19;0.98;;;0.75;;
38123;SDS011;23934;47.998;9.832;2023-07-30T11:56:45;1.60;;;1.00;;
38123;SDS011;23934;47.998;9.832;2023-07-30T11:59:11;1.98;;;0.93;;
38123;SDS011;23934;47.998;9.832;2023-07-30T12:01:38;1.85;;;1.02;;
38123;SDS011;23934;47.998;9.832;2023-07-30T12:04:04;2.45;;;0.80;;
38123;SDS011;23934;47.998;9.832;2023-07-30T12:06:47;4.60;;;1.85;;
38123;SDS011;23934;47.998;9.832;2023-07-30T12:09:14;1.98;;;0.80;;
38123;SDS011;23934;47.998;9.832;2023-07-30T12:11:46;0.98;;;0.70;;
38123;SDS011;23934;47.998;9.832;2023-07-30T12:14:12;3.70;;;1.00;;
38123;SDS011;23934;47.998;9.832;2023-07-30T12:16:38;1.55;;;0.90;;
38123;SDS011;23934;47.998;9.832;2023-07-30T12:19:04;2.45;;;1.02;;
38123;SDS011;23934;47.998;9.832;2023-07-30T12:21:30;2.88;;;0.90;;
38123;SDS011;23934;47.998;9.832;2023-07-30T12:23:56;1.45;;;0.80;;
38123;SDS011;23934;47.998;9.832;2023-07-30T12:26:22;10.38;;;1.27;;
38123;SDS011;23934;47.998;9.832;2023-07-30T12:28:48;1.23;;;0.73;;
38123;SDS011;23934;47.998;9.832;2023-07-30T12:31:14;0.95;;;0.70;;
38123;SDS011;23934;47.998;9.832;2023-07-30T12:33:40;1.27;;;0.80;;
38123;SDS011;23934;47.998;9.832;2023-07-30T12:36:06;3.38;;;1.20;;
38123;SDS011;23934;47.998;9.832;2023-07-30T12:38:32;2.28;;;1.08;;
38123;SDS011;23934;47.998;9.832;2023-07-30T12:40:59;2.65;;;0.80;;
38123;SDS011;23934;47.998;9.832;2023-07-30T12:43:25;1.23;;;0.90;;
38123;SDS011;23934;47.998;9.832;2023-07-30T12:45:51;7.65;;;1.17;;
38123;SDS011;23934;47.998;9.832;2023-07-30T12:48:17;1.65;;;0.88;;
38123;SDS011;23934;47.998;9.832;2023-07-30T12:50:43;1.42;;;0.82;;
38123;SDS011;23934;47.998;9.832;2023-07-30T12:53:09;1.38;;;1.05;;
38123;SDS011;23934;47.998;9.832;2023-07-30T12:55:35;4.03;;;1.15;;
38123;SDS011;23934;47.998;9.832;2023-07-30T12:58:01;1.73;;;0.95;;
38123;SDS011;23934;47.998;9.832;2023-07-30T13:00:28;1.33;;;0.70;;
38123;SDS011;23934;47.998;9.832;2023-07-30T13:02:54;11.57;;;1.55;;
38123;SDS011;23934;47.998;9.832;2023-07-30T13:05:21;1.52;;;0.90;;
38123;SDS011;23934;47.998;9.832;2023-07-30T13:07:47;1.58;;;1.00;;
38123;SDS011;23934;47.998;9.832;2023-07-30T13:10:14;2.10;;;1.00;;
38123;SDS011;23934;47.998;9.832;2023-07-30T13:12:40;2.08;;;0.88;;
38123;SDS011;23934;47.998;9.832;2023-07-30T13:15:06;2.47;;;0.90;;
38123;SDS011;23934;47.998;9.832;2023-07-30T13:17:32;1.90;;;1.10;;
38123;SDS011;23934;47.998;9.832;2023-07-30T13:19:58;1.20;;;1.00;;
38123;SDS011;23934;47.998;9.832;2023-07-30T13:22:24;1.13;;;0.73;;
38123;SDS011;23934;47.998;9.832;2023-07-30T13:24:50;1.10;;;0.75;;
38123;SDS011;23934;47.998;9.832;2023-07-30T13:27:16;2.42;;;1.10;;
38123;SDS011;23934;47.998;9.832;2023-07-30T13:29:42;1.77;;;1.02;;
38123;SDS011;23934;47.998;9.832;2023-07-30T13:32:08;1.38;;;0.80;;
38123;SDS011;23934;47.998;9.832;2023-07-30T13:34:34;2.28;;;1.00;;
38123;SDS011;23934;47.998;9.832;2023-07-30T13:37:00;3.08;;;1.20;;
38123;SDS011;23934;47.998;9.832;2023-07-30T13:39:27;2.40;;;1.20;;
38123;SDS011;23934;47.998;9.832;2023-07-30T13:41:53;6.65;;;1.02;;
38123;SDS011;23934;47.998;9.832;2023-07-30T13:44:19;1.85;;;0.85;;
38123;SDS011;23934;47.998;9.832;2023-07-30T13:46:45;1.48;;;0.85;;
38123;SDS011;23934;47.998;9.832;2023-07-30T13:49:11;3.50;;;1.23;;
38123;SDS011;23934;47.998;9.832;2023-07-30T13:51:37;2.88;;;1.33;;
38123;SDS011;23934;47.998;9.832;2023-07-30T13:54:03;3.60;;;1.35;;
38123;SDS011;23934;47.998;9.832;2023-07-30T13:56:32;3.35;;;2.30;;
38123;SDS011;23934;47.998;9.832;2023-07-30T13:58:58;1.70;;;0.95;;
38123;SDS011;23934;47.998;9.832;2023-07-30T14:01:24;2.53;;;1.20;;
38123;SDS011;23934;47.998;9.832;2023-07-30T14:03:50;2.63;;;1.20;;
38123;SDS011;23934;47.998;9.832;2023-07-30T14:06:16;3.80;;;1.00;;
38123;SDS011;23934;47.998;9.832;2023-07-30T14:08:42;3.72;;;0.82;;
38123;SDS011;23934;47.998;9.832;2023-07-30T14:11:08;3.17;;;1.33;;
38123;SDS011;23934;47.998;9.832;2023-07-30T14:13:34;4.78;;;1.10;;
38123;SDS011;23934;47.998;9.832;2023-07-30T14:16:00;1.38;;;0.80;;
38123;SDS011;23934;47.998;9.832;2023-07-30T14:18:26;2.13;;;1.10;;
38123;SDS011;23934;47.998;9.832;2023-07-30T14:20:52;1.52;;;0.73;;
38123;SDS011;23934;47.998;9.832;2023-07-30T14:23:18;8.02;;;1.38;;
38123;SDS011;23934;47.998;9.832;2023-07-30T14:25:44;2.38;;;1.10;;
38123;SDS011;23934;47.998;9.832;2023-07-30T14:28:10;2.15;;;1.20;;
38123;SDS011;23934;47.998;9.832;2023-07-30T14:30:36;4.60;;;1.00;;
38123;SDS011;23934;47.998;9.832;2023-07-30T14:33:08;2.95;;;1.27;;
38123;SDS011;23934;47.998;9.832;2023-07-30T14:35:34;1.88;;;0.98;;
38123;SDS011;23934;47.998;9.832;2023-07-30T14:38:02;2.65;;;1.10;;
38123;SDS011;23934;47.998;9.832;2023-07-30T14:40:28;1.55;;;1.00;;
38123;SDS011;23934;47.998;9.832;2023-07-30T14:42:54;1.63;;;1.02;;
38123;SDS011;23934;47.998;9.832;2023-07-30T14:45:20;6.28;;;1.38;;
38123;SDS011;23934;47.998;9.832;2023-07-30T14:47:46;1.67;;;0.93;;
38123;SDS011;23934;47.998;9.832;2023-07-30T14:50:12;2.60;;;1.17;;